createdAt,value
2018-08-04T00:00:18.880Z,1013.31
2018-08-04T00:01:18.863Z,1013.30
2018-08-04T00:02:18.845Z,1013.25
2018-08-04T00:03:18.831Z,1013.27
2018-08-04T00:04:18.814Z,1013.23
2018-08-04T00:05:18.799Z,1013.23
2018-08-04T00:06:18.782Z,1013.20
2018-08-04T00:07:18.766Z,1013.21
2018-08-04T00:08:18.751Z,1013.17
2018-08-04T00:09:18.736Z,1013.18
2018-08-04T00:10:18.717Z,1013.19
2018-08-04T00:11:18.706Z,1013.15
2018-08-04T00:12:18.693Z,1013.13
2018-08-04T00:13:18.671Z,1013.13
2018-08-04T00:14:18.659Z,1013.13
2018-08-04T00:15:18.640Z,1013.12
2018-08-04T00:16:18.624Z,1013.14
2018-08-04T00:17:18.608Z,1013.10
2018-08-04T00:18:18.591Z,1013.10
2018-08-04T00:19:18.593Z,1013.10
2018-08-04T00:20:18.561Z,1013.08
2018-08-04T00:21:18.544Z,1013.07
2018-08-04T00:22:18.527Z,1013.01
2018-08-04T00:23:18.514Z,1013.04
2018-08-04T00:24:18.496Z,1012.98
2018-08-04T00:25:18.527Z,1012.98
2018-08-04T00:26:18.465Z,1012.98
2018-08-04T00:27:18.449Z,1012.98
2018-08-04T00:28:18.432Z,1013.00
2018-08-04T00:29:18.418Z,1013.03
2018-08-04T00:30:18.400Z,1013.00
2018-08-04T00:31:18.383Z,1013.01
2018-08-04T00:32:18.372Z,1013.05
2018-08-04T00:33:18.352Z,1013.07
2018-08-04T00:34:18.336Z,1013.03
2018-08-04T00:35:18.321Z,1013.05
2018-08-04T00:36:18.304Z,1013.06
2018-08-04T00:37:18.289Z,1013.06
2018-08-04T00:38:18.271Z,1013.06
2018-08-04T00:39:18.257Z,1013.07
2018-08-04T00:40:18.241Z,1013.08
2018-08-04T00:41:18.226Z,1013.07
2018-08-04T00:42:18.208Z,1013.08
2018-08-04T00:43:18.194Z,1013.06
2018-08-04T00:44:18.177Z,1013.09
2018-08-04T00:45:18.165Z,1013.08
2018-08-04T00:46:18.162Z,1013.11
2018-08-04T00:47:18.129Z,1013.12
2018-08-04T00:48:18.115Z,1013.10
2018-08-04T00:49:18.133Z,1013.12
2018-08-04T00:50:18.082Z,1013.13
2018-08-04T00:51:18.066Z,1013.07
2018-08-04T00:52:18.050Z,1013.14
2018-08-04T00:53:18.034Z,1013.12
2018-08-04T00:54:18.019Z,1013.14
2018-08-04T00:55:18.002Z,1013.08
2018-08-04T00:56:17.985Z,1013.11
2018-08-04T00:57:17.973Z,1013.13
2018-08-04T00:58:17.955Z,1013.11
2018-08-04T00:59:17.938Z,1013.11
2018-08-04T01:00:17.926Z,1013.10
2018-08-04T01:01:17.908Z,1013.11
2018-08-04T01:02:17.892Z,1013.11
2018-08-04T01:03:17.874Z,1013.13
2018-08-04T01:04:17.859Z,1013.15
2018-08-04T01:05:17.847Z,1013.16
2018-08-04T01:06:17.828Z,1013.18
2018-08-04T01:07:17.810Z,1013.18
2018-08-04T01:08:17.795Z,1013.18
2018-08-04T01:09:17.780Z,1013.21
2018-08-04T01:10:17.762Z,1013.22
2018-08-04T01:11:17.747Z,1013.18
2018-08-04T01:12:17.735Z,1013.18
2018-08-04T01:13:17.715Z,1013.21
2018-08-04T01:14:17.700Z,1013.24
2018-08-04T01:15:17.683Z,1013.22
2018-08-04T01:16:17.667Z,1013.23
2018-08-04T01:17:17.652Z,1013.24
2018-08-04T01:18:17.636Z,1013.26
2018-08-04T01:19:17.621Z,1013.22
2018-08-04T01:20:17.603Z,1013.27
2018-08-04T01:21:17.588Z,1013.27
2018-08-04T01:22:17.571Z,1013.25
2018-08-04T01:23:17.562Z,1013.28
2018-08-04T01:24:17.541Z,1013.23
2018-08-04T01:25:17.525Z,1013.24
2018-08-04T01:26:17.508Z,1013.26
2018-08-04T01:27:17.493Z,1013.25
2018-08-04T01:28:17.477Z,1013.27
2018-08-04T01:29:17.460Z,1013.26
2018-08-04T01:30:17.445Z,1013.24
2018-08-04T01:31:17.429Z,1013.27
2018-08-04T01:32:17.414Z,1013.25
2018-08-04T01:33:17.397Z,1013.25
2018-08-04T01:34:17.382Z,1013.27
2018-08-04T01:35:17.367Z,1013.23
2018-08-04T01:36:17.352Z,1013.24
2018-08-04T01:37:17.333Z,1013.23
2018-08-04T01:38:17.318Z,1013.21
2018-08-04T01:39:17.302Z,1013.20
2018-08-04T01:40:17.285Z,1013.16
2018-08-04T01:41:17.270Z,1013.16
2018-08-04T01:42:17.254Z,1013.17
2018-08-04T01:43:17.238Z,1013.20
2018-08-04T01:44:17.222Z,1013.15
2018-08-04T01:45:17.207Z,1013.15
2018-08-04T01:46:17.191Z,1013.17
2018-08-04T01:47:17.174Z,1013.20
2018-08-04T01:48:17.159Z,1013.16
2018-08-04T01:49:17.142Z,1013.17
2018-08-04T01:50:17.127Z,1013.23
2018-08-04T01:51:17.109Z,1013.24
2018-08-04T01:52:17.099Z,1013.22
2018-08-04T01:53:17.079Z,1013.23
2018-08-04T01:54:17.062Z,1013.22
2018-08-04T01:55:17.048Z,1013.23
2018-08-04T01:56:17.032Z,1013.20
2018-08-04T01:57:17.015Z,1013.19
2018-08-04T01:58:16.999Z,1013.19
2018-08-04T01:59:17.016Z,1013.21
2018-08-04T02:00:16.968Z,1013.20
2018-08-04T02:01:16.953Z,1013.23
2018-08-04T02:02:16.935Z,1013.20
2018-08-04T02:03:16.922Z,1013.21
2018-08-04T02:04:16.903Z,1013.19
2018-08-04T02:05:16.888Z,1013.16
2018-08-04T02:06:16.871Z,1013.15
2018-08-04T02:07:16.876Z,1013.18
2018-08-04T02:08:16.842Z,1013.14
2018-08-04T02:09:16.826Z,1013.16
2018-08-04T02:10:16.807Z,1013.12
2018-08-04T02:11:16.795Z,1013.14
2018-08-04T02:12:16.778Z,1013.12
2018-08-04T02:13:16.763Z,1013.14
2018-08-04T02:14:16.746Z,1013.15
2018-08-04T02:15:16.732Z,1013.11
2018-08-04T02:16:16.712Z,1013.07
2018-08-04T02:17:16.702Z,1013.10
2018-08-04T02:18:16.680Z,1013.10
2018-08-04T02:19:16.666Z,1013.08
2018-08-04T02:20:16.658Z,1013.06
2018-08-04T02:21:16.634Z,1013.07
2018-08-04T02:22:16.614Z,1013.04
2018-08-04T02:23:16.602Z,1013.02
2018-08-04T02:24:16.584Z,1013.04
2018-08-04T02:25:16.570Z,1013.01
2018-08-04T02:26:16.552Z,1012.98
2018-08-04T02:27:16.535Z,1012.97
2018-08-04T02:28:16.520Z,1012.97
2018-08-04T02:29:16.504Z,1012.95
2018-08-04T02:30:16.489Z,1012.98
2018-08-04T02:31:16.479Z,1013.00
2018-08-04T02:32:16.458Z,1013.02
2018-08-04T02:33:16.441Z,1013.03
2018-08-04T02:34:16.431Z,1013.03
2018-08-04T02:35:16.409Z,1013.03
2018-08-04T02:36:16.393Z,1013.05
2018-08-04T02:37:16.380Z,1012.99
2018-08-04T02:38:16.362Z,1013.00
2018-08-04T02:39:16.344Z,1012.96
2018-08-04T02:40:16.328Z,1012.99
2018-08-04T02:41:16.315Z,1012.97
2018-08-04T02:42:16.297Z,1012.95
2018-08-04T02:43:16.281Z,1012.94
2018-08-04T02:44:16.265Z,1012.94
2018-08-04T02:45:16.251Z,1012.92
2018-08-04T02:46:16.232Z,1012.94
2018-08-04T02:47:16.217Z,1012.95
2018-08-04T02:48:16.203Z,1012.97
2018-08-04T02:49:16.185Z,1012.95
2018-08-04T02:50:16.169Z,1012.92
2018-08-04T02:51:16.156Z,1012.89
2018-08-04T02:52:16.139Z,1012.92
2018-08-04T02:53:16.121Z,1012.94
2018-08-04T02:54:16.105Z,1012.88
2018-08-04T02:55:16.089Z,1012.89
2018-08-04T02:56:16.074Z,1012.88
2018-08-04T02:57:16.057Z,1012.89
2018-08-04T02:58:16.042Z,1012.89
2018-08-04T02:59:16.027Z,1012.92
2018-08-04T03:00:16.013Z,1012.88
2018-08-04T03:01:15.995Z,1012.90
2018-08-04T03:02:15.977Z,1012.92
2018-08-04T03:03:15.961Z,1012.91
2018-08-04T03:04:15.946Z,1012.87
2018-08-04T03:05:15.934Z,1012.88
2018-08-04T03:06:15.913Z,1012.87
2018-08-04T03:07:15.899Z,1012.84
2018-08-04T03:08:15.883Z,1012.88
2018-08-04T03:09:15.868Z,1012.87
2018-08-04T03:10:15.852Z,1012.87
2018-08-04T03:11:15.835Z,1012.91
2018-08-04T03:12:15.819Z,1012.88
2018-08-04T03:13:15.801Z,1012.90
2018-08-04T03:14:15.792Z,1012.88
2018-08-04T03:15:15.776Z,1012.89
2018-08-04T03:16:15.754Z,1012.87
2018-08-04T03:17:15.739Z,1012.86
2018-08-04T03:18:15.721Z,1012.88
2018-08-04T03:19:15.706Z,1012.86
2018-08-04T03:20:15.691Z,1012.84
2018-08-04T03:21:15.675Z,1012.85
2018-08-04T03:22:15.659Z,1012.80
2018-08-04T03:23:15.642Z,1012.81
2018-08-04T03:24:15.628Z,1012.77
2018-08-04T03:25:15.610Z,1012.82
2018-08-04T03:26:15.594Z,1012.77
2018-08-04T03:27:15.580Z,1012.76
2018-08-04T03:28:15.562Z,1012.74
2018-08-04T03:29:15.547Z,1012.77
2018-08-04T03:30:15.530Z,1012.75
2018-08-04T03:31:15.517Z,1012.76
2018-08-04T03:32:15.502Z,1012.79
2018-08-04T03:33:15.484Z,1012.85
2018-08-04T03:34:15.466Z,1012.85
2018-08-04T03:35:15.452Z,1012.84
2018-08-04T03:36:15.436Z,1012.89
2018-08-04T03:37:15.419Z,1012.88
2018-08-04T03:38:15.402Z,1012.85
2018-08-04T03:39:15.387Z,1012.88
2018-08-04T03:40:15.374Z,1012.92
2018-08-04T03:41:15.355Z,1012.88
2018-08-04T03:42:15.340Z,1012.86
2018-08-04T03:43:15.323Z,1012.90
2018-08-04T03:44:15.306Z,1012.87
2018-08-04T03:45:15.293Z,1012.85
2018-08-04T03:46:15.275Z,1012.93
2018-08-04T03:47:15.258Z,1012.87
2018-08-04T03:48:15.246Z,1012.91
2018-08-04T03:49:15.228Z,1012.87
2018-08-04T03:50:15.211Z,1012.84
2018-08-04T03:51:15.198Z,1012.84
2018-08-04T03:52:15.180Z,1012.87
2018-08-04T03:53:15.164Z,1012.84
2018-08-04T03:54:15.148Z,1012.85
2018-08-04T03:55:15.131Z,1012.86
2018-08-04T03:56:15.116Z,1012.84
2018-08-04T03:57:15.101Z,1012.86
2018-08-04T03:58:15.084Z,1012.88
2018-08-04T03:59:15.068Z,1012.88
2018-08-04T04:00:15.054Z,1012.95
2018-08-04T04:01:15.037Z,1012.93
2018-08-04T04:02:15.021Z,1012.96
2018-08-04T04:03:15.007Z,1012.93
2018-08-04T04:04:14.996Z,1012.94
2018-08-04T04:05:14.973Z,1012.94
2018-08-04T04:06:14.967Z,1012.98
2018-08-04T04:07:14.941Z,1013.03
2018-08-04T04:08:14.925Z,1013.06
2018-08-04T04:09:14.911Z,1013.07
2018-08-04T04:10:14.891Z,1013.08
2018-08-04T04:11:14.877Z,1013.08
2018-08-04T04:12:14.864Z,1013.06
2018-08-04T04:13:14.844Z,1013.08
2018-08-04T04:14:14.830Z,1013.06
2018-08-04T04:15:14.814Z,1013.07
2018-08-04T04:16:14.797Z,1013.06
2018-08-04T04:17:14.782Z,1013.09
2018-08-04T04:18:14.765Z,1013.07
2018-08-04T04:19:14.751Z,1013.09
2018-08-04T04:20:14.732Z,1013.06
2018-08-04T04:21:14.718Z,1013.06
2018-08-04T04:22:14.700Z,1013.05
2018-08-04T04:23:14.689Z,1013.07
2018-08-04T04:24:14.669Z,1013.08
2018-08-04T04:25:14.654Z,1013.07
2018-08-04T04:26:14.639Z,1013.06
2018-08-04T04:27:14.621Z,1013.04
2018-08-04T04:28:14.607Z,1013.06
2018-08-04T04:29:14.589Z,1013.08
2018-08-04T04:30:14.574Z,1013.07
2018-08-04T04:31:14.558Z,1013.08
2018-08-04T04:32:14.541Z,1013.08
2018-08-04T04:33:14.526Z,1013.14
2018-08-04T04:34:14.508Z,1013.11
2018-08-04T04:35:14.493Z,1013.12
2018-08-04T04:36:14.483Z,1013.17
2018-08-04T04:37:14.463Z,1013.19
2018-08-04T04:38:14.446Z,1013.22
2018-08-04T04:39:14.429Z,1013.26
2018-08-04T04:40:14.412Z,1013.29
2018-08-04T04:41:14.398Z,1013.24
2018-08-04T04:42:14.380Z,1013.31
2018-08-04T04:43:14.369Z,1013.28
2018-08-04T04:44:14.351Z,1013.32
2018-08-04T04:45:14.334Z,1013.30
2018-08-04T04:46:14.317Z,1013.30
2018-08-04T04:47:14.301Z,1013.33
2018-08-04T04:48:14.287Z,1013.31
2018-08-04T04:49:14.271Z,1013.29
2018-08-04T04:50:14.257Z,1013.32
2018-08-04T04:51:14.237Z,1013.27
2018-08-04T04:52:14.222Z,1013.27
2018-08-04T04:53:14.206Z,1013.30
2018-08-04T04:54:14.187Z,1013.26
2018-08-04T04:55:14.173Z,1013.21
2018-08-04T04:56:14.157Z,1013.22
2018-08-04T04:57:14.139Z,1013.23
2018-08-04T04:58:14.124Z,1013.22
2018-08-04T04:59:14.109Z,1013.25
2018-08-04T05:00:14.093Z,1013.26
2018-08-04T05:01:14.077Z,1013.25
2018-08-04T05:02:14.063Z,1013.26
2018-08-04T05:03:14.045Z,1013.26
2018-08-04T05:04:14.029Z,1013.27
2018-08-04T05:05:14.013Z,1013.27
2018-08-04T05:06:13.998Z,1013.28
2018-08-04T05:07:13.983Z,1013.31
2018-08-04T05:08:13.964Z,1013.33
2018-08-04T05:09:13.949Z,1013.28
2018-08-04T05:10:13.932Z,1013.31
2018-08-04T05:11:13.916Z,1013.34
2018-08-04T05:12:13.900Z,1013.34
2018-08-04T05:13:13.925Z,1013.31
2018-08-04T05:14:13.869Z,1013.33
2018-08-04T05:15:13.853Z,1013.38
2018-08-04T05:16:13.836Z,1013.35
2018-08-04T05:17:13.820Z,1013.38
2018-08-04T05:18:13.803Z,1013.41
2018-08-04T05:19:13.789Z,1013.42
2018-08-04T05:20:13.772Z,1013.40
2018-08-04T05:21:13.757Z,1013.34
2018-08-04T05:22:13.741Z,1013.36
2018-08-04T05:23:13.724Z,1013.36
2018-08-04T05:24:13.710Z,1013.41
2018-08-04T05:25:13.692Z,1013.44
2018-08-04T05:26:13.675Z,1013.40
2018-08-04T05:27:13.659Z,1013.48
2018-08-04T05:28:13.645Z,1013.46
2018-08-04T05:29:13.629Z,1013.48
2018-08-04T05:30:13.611Z,1013.45
2018-08-04T05:31:13.596Z,1013.46
2018-08-04T05:32:13.580Z,1013.45
2018-08-04T05:33:13.566Z,1013.46
2018-08-04T05:34:13.547Z,1013.51
2018-08-04T05:35:13.532Z,1013.53
2018-08-04T05:36:13.515Z,1013.48
2018-08-04T05:37:13.503Z,1013.48
2018-08-04T05:38:13.483Z,1013.55
2018-08-04T05:39:13.468Z,1013.53
2018-08-04T05:40:13.452Z,1013.57
2018-08-04T05:41:13.435Z,1013.54
2018-08-04T05:42:13.417Z,1013.52
2018-08-04T05:43:13.460Z,1013.54
2018-08-04T05:44:13.387Z,1013.54
2018-08-04T05:45:13.372Z,1013.53
2018-08-04T05:46:13.355Z,1013.54
2018-08-04T05:47:13.339Z,1013.52
2018-08-04T05:48:13.322Z,1013.56
2018-08-04T05:49:13.308Z,1013.54
2018-08-04T05:50:13.290Z,1013.54
2018-08-04T05:51:13.275Z,1013.46
2018-08-04T05:52:13.259Z,1013.47
2018-08-04T05:53:13.242Z,1013.44
2018-08-04T05:54:13.227Z,1013.47
2018-08-04T05:55:13.211Z,1013.47
2018-08-04T05:56:13.198Z,1013.49
2018-08-04T05:57:13.180Z,1013.51
2018-08-04T05:58:13.164Z,1013.53
2018-08-04T06:00:46.233Z,1013.54
2018-08-04T06:01:46.243Z,1013.56
2018-08-04T06:02:46.184Z,1013.55
2018-08-04T06:03:46.169Z,1013.55
2018-08-04T06:04:46.150Z,1013.55
2018-08-04T06:05:46.136Z,1013.58
2018-08-04T06:06:46.120Z,1013.60
2018-08-04T06:07:46.105Z,1013.62
2018-08-04T06:08:46.087Z,1013.61
2018-08-04T06:09:46.074Z,1013.63
2018-08-04T06:10:46.055Z,1013.63
2018-08-04T06:11:46.038Z,1013.67
2018-08-04T06:12:46.022Z,1013.66
2018-08-04T06:13:46.006Z,1013.67
2018-08-04T06:14:45.991Z,1013.65
2018-08-04T06:15:45.975Z,1013.68
2018-08-04T06:16:45.959Z,1013.67
2018-08-04T06:17:45.943Z,1013.70
2018-08-04T06:18:45.929Z,1013.71
2018-08-04T06:19:45.910Z,1013.69
2018-08-04T06:20:45.895Z,1013.70
2018-08-04T06:21:45.878Z,1013.76
2018-08-04T06:22:45.862Z,1013.72
2018-08-04T06:23:45.847Z,1013.75
2018-08-04T06:24:45.831Z,1013.74
2018-08-04T06:25:45.813Z,1013.72
2018-08-04T06:26:45.798Z,1013.76
2018-08-04T06:27:45.781Z,1013.72
2018-08-04T06:28:45.763Z,1013.74
2018-08-04T06:29:45.750Z,1013.74
2018-08-04T06:30:45.734Z,1013.77
2018-08-04T06:31:45.718Z,1013.79
2018-08-04T06:32:45.700Z,1013.81
2018-08-04T06:33:45.685Z,1013.81
2018-08-04T06:34:45.668Z,1013.84
2018-08-04T06:35:45.652Z,1013.84
2018-08-04T06:36:45.638Z,1013.86
2018-08-04T06:37:45.621Z,1013.89
2018-08-04T06:38:45.603Z,1013.89
2018-08-04T06:39:45.590Z,1013.93
2018-08-04T06:40:45.573Z,1013.94
2018-08-04T06:41:45.595Z,1013.90
2018-08-04T06:42:45.540Z,1013.92
2018-08-04T06:43:45.524Z,1013.92
2018-08-04T06:44:45.510Z,1013.97
2018-08-04T06:45:45.494Z,1013.91
2018-08-04T06:46:45.476Z,1013.90
2018-08-04T06:47:45.459Z,1013.88
2018-08-04T06:48:45.444Z,1013.91
2018-08-04T06:49:45.428Z,1013.89
2018-08-04T06:50:45.412Z,1013.90
2018-08-04T06:51:45.396Z,1013.91
2018-08-04T06:52:45.400Z,1013.91
2018-08-04T06:53:45.364Z,1013.87
2018-08-04T06:54:45.348Z,1013.89
2018-08-04T06:55:45.332Z,1013.89
2018-08-04T06:56:45.316Z,1013.90
2018-08-04T06:57:45.299Z,1013.92
2018-08-04T06:58:45.283Z,1013.87
2018-08-04T06:59:45.266Z,1013.88
2018-08-04T07:00:45.253Z,1013.86
2018-08-04T07:01:45.236Z,1013.91
2018-08-04T07:02:45.220Z,1013.89
2018-08-04T07:03:45.204Z,1013.91
2018-08-04T07:04:45.187Z,1013.88
2018-08-04T07:05:45.171Z,1013.90
2018-08-04T07:06:45.155Z,1013.87
2018-08-04T07:07:45.143Z,1013.93
2018-08-04T07:08:45.123Z,1013.89
2018-08-04T07:09:45.109Z,1013.91
2018-08-04T07:10:45.091Z,1013.94
2018-08-04T07:11:45.073Z,1013.86
2018-08-04T07:12:45.060Z,1013.90
2018-08-04T07:13:45.102Z,1013.92
2018-08-04T07:14:45.026Z,1013.89
2018-08-04T07:15:45.012Z,1013.92
2018-08-04T07:16:44.994Z,1013.93
2018-08-04T07:17:44.978Z,1013.96
2018-08-04T07:18:44.962Z,1013.94
2018-08-04T07:19:44.946Z,1013.92
2018-08-04T07:20:44.930Z,1013.91
2018-08-04T07:21:44.914Z,1013.94
2018-08-04T07:22:44.901Z,1013.93
2018-08-04T07:23:44.882Z,1013.95
2018-08-04T07:24:44.868Z,1013.96
2018-08-04T07:25:44.851Z,1013.97
2018-08-04T07:26:44.834Z,1013.99
2018-08-04T07:27:44.817Z,1013.95
2018-08-04T07:28:44.821Z,1013.96
2018-08-04T07:29:44.785Z,1013.99
2018-08-04T07:30:44.771Z,1013.98
2018-08-04T07:31:44.754Z,1013.97
2018-08-04T07:32:44.738Z,1013.93
2018-08-04T07:33:44.723Z,1013.97
2018-08-04T07:34:44.705Z,1014.01
2018-08-04T07:35:44.688Z,1013.99
2018-08-04T07:36:44.673Z,1014.01
2018-08-04T07:37:44.658Z,1014.02
2018-08-04T07:38:44.641Z,1014.01
2018-08-04T07:39:44.624Z,1014.00
2018-08-04T07:40:44.609Z,1013.95
2018-08-04T07:41:44.591Z,1013.98
2018-08-04T07:42:44.579Z,1013.99
2018-08-04T07:43:44.561Z,1014.03
2018-08-04T07:44:44.555Z,1013.99
2018-08-04T07:45:44.528Z,1013.99
2018-08-04T07:46:44.526Z,1013.99
2018-08-04T07:47:44.500Z,1013.99
2018-08-04T07:48:44.481Z,1014.00
2018-08-04T07:49:44.464Z,1013.99
2018-08-04T07:50:44.448Z,1013.98
2018-08-04T07:51:44.433Z,1013.96
2018-08-04T07:52:44.415Z,1013.97
2018-08-04T07:53:44.401Z,1013.97
2018-08-04T07:54:44.383Z,1013.98
2018-08-04T07:55:44.370Z,1013.99
2018-08-04T07:56:44.351Z,1013.97
2018-08-04T07:57:44.337Z,1013.96
2018-08-04T07:58:44.321Z,1013.98
2018-08-04T07:59:44.302Z,1013.96
2018-08-04T08:00:44.288Z,1013.91
2018-08-04T08:01:44.271Z,1013.95
2018-08-04T08:02:44.256Z,1013.92
2018-08-04T08:03:44.239Z,1013.94
2018-08-04T08:04:44.223Z,1013.91
2018-08-04T08:05:44.209Z,1013.91
2018-08-04T08:06:44.190Z,1013.91
2018-08-04T08:07:44.175Z,1013.94
2018-08-04T08:08:44.159Z,1013.93
2018-08-04T08:09:44.145Z,1013.93
2018-08-04T08:10:44.244Z,1013.90
2018-08-04T08:11:44.112Z,1013.94
2018-08-04T08:12:44.094Z,1013.93
2018-08-04T08:13:44.078Z,1013.95
2018-08-04T08:14:44.061Z,1013.91
2018-08-04T08:15:44.048Z,1013.99
2018-08-04T08:16:44.030Z,1013.98
2018-08-04T08:17:44.014Z,1013.98
2018-08-04T08:18:43.996Z,1013.99
2018-08-04T08:19:43.981Z,1013.94
2018-08-04T08:20:43.966Z,1013.95
2018-08-04T08:21:43.951Z,1014.01
2018-08-04T08:22:43.959Z,1013.97
2018-08-04T08:23:43.918Z,1013.97
2018-08-04T08:24:43.949Z,1014.00
2018-08-04T08:25:43.890Z,1014.01
2018-08-04T08:26:43.870Z,1014.01
2018-08-04T08:27:43.853Z,1014.04
2018-08-04T08:28:43.838Z,1014.05
2018-08-04T08:29:43.825Z,1014.04
2018-08-04T08:30:43.804Z,1014.06
2018-08-04T08:31:43.790Z,1014.05
2018-08-04T08:32:43.791Z,1014.10
2018-08-04T08:33:43.764Z,1014.11
2018-08-04T08:34:43.743Z,1014.13
2018-08-04T08:35:43.724Z,1014.10
2018-08-04T08:36:43.709Z,1014.13
2018-08-04T08:37:43.697Z,1014.14
2018-08-04T08:38:43.676Z,1014.13
2018-08-04T08:39:43.661Z,1014.12
2018-08-04T08:40:43.645Z,1014.09
2018-08-04T08:41:43.633Z,1014.12
2018-08-04T08:42:43.612Z,1014.11
2018-08-04T08:43:43.607Z,1014.11
2018-08-04T08:44:43.581Z,1014.14
2018-08-04T08:45:43.564Z,1014.14
2018-08-04T08:46:43.548Z,1014.21
2018-08-04T08:47:43.532Z,1014.18
2018-08-04T08:48:43.516Z,1014.17
2018-08-04T08:49:43.502Z,1014.19
2018-08-04T08:50:43.485Z,1014.16
2018-08-04T08:51:43.467Z,1014.21
2018-08-04T08:52:43.452Z,1014.09
2018-08-04T08:53:43.500Z,1014.15
2018-08-04T08:54:43.419Z,1014.16
2018-08-04T08:55:43.403Z,1014.15
2018-08-04T08:56:43.388Z,1014.16
2018-08-04T08:57:43.372Z,1014.16
2018-08-04T08:58:43.356Z,1014.11
2018-08-04T08:59:43.342Z,1014.11
2018-08-04T09:00:43.324Z,1014.10
2018-08-04T09:01:43.308Z,1014.12
2018-08-04T09:02:43.291Z,1014.09
2018-08-04T09:03:43.277Z,1014.13
2018-08-04T09:04:43.260Z,1014.12
2018-08-04T09:05:43.244Z,1014.06
2018-08-04T09:06:43.227Z,1014.12
2018-08-04T09:07:43.211Z,1014.13
2018-08-04T09:08:43.224Z,1014.13
2018-08-04T09:09:43.180Z,1014.13
2018-08-04T09:10:43.168Z,1014.11
2018-08-04T09:11:43.147Z,1014.15
2018-08-04T09:12:43.130Z,1014.14
2018-08-04T09:13:43.114Z,1014.13
2018-08-04T09:14:43.098Z,1014.12
2018-08-04T09:15:43.140Z,1014.15
2018-08-04T09:16:43.066Z,1014.15
2018-08-04T09:17:43.051Z,1014.14
2018-08-04T09:18:43.035Z,1014.14
2018-08-04T09:19:43.018Z,1014.19
2018-08-04T09:20:43.007Z,1014.16
2018-08-04T09:21:42.987Z,1014.15
2018-08-04T09:22:42.970Z,1014.15
2018-08-04T09:23:42.953Z,1014.15
2018-08-04T09:24:42.942Z,1014.14
2018-08-04T09:25:42.922Z,1014.17
2018-08-04T09:26:42.906Z,1014.12
2018-08-04T09:27:42.891Z,1014.13
2018-08-04T09:28:42.873Z,1014.13
2018-08-04T09:29:42.857Z,1014.11
2018-08-04T09:30:42.891Z,1014.16
2018-08-04T09:31:42.827Z,1014.10
2018-08-04T09:32:42.810Z,1014.12
2018-08-04T09:33:42.793Z,1014.13
2018-08-04T09:34:42.782Z,1014.07
2018-08-04T09:35:42.762Z,1014.11
2018-08-04T09:36:42.744Z,1014.12
2018-08-04T09:37:42.735Z,1014.08
2018-08-04T09:38:42.711Z,1014.10
2018-08-04T09:39:42.697Z,1014.06
2018-08-04T09:40:42.683Z,1014.08
2018-08-04T09:41:42.665Z,1014.07
2018-08-04T09:42:42.649Z,1014.09
2018-08-04T09:43:42.633Z,1014.07
2018-08-04T09:44:42.624Z,1014.06
2018-08-04T09:45:42.600Z,1014.10
2018-08-04T09:46:42.584Z,1014.08
2018-08-04T09:47:42.567Z,1014.06
2018-08-04T09:48:42.554Z,1014.08
2018-08-04T09:49:42.538Z,1014.09
2018-08-04T09:50:42.520Z,1014.10
2018-08-04T09:51:42.504Z,1014.07
2018-08-04T09:52:42.491Z,1014.08
2018-08-04T09:53:42.472Z,1014.05
2018-08-04T09:54:42.459Z,1014.02
2018-08-04T09:55:42.439Z,1014.01
2018-08-04T09:56:42.428Z,1013.99
2018-08-04T09:57:42.407Z,1014.02
2018-08-04T09:58:42.390Z,1014.02
2018-08-04T09:59:42.380Z,1014.02
2018-08-04T10:00:42.360Z,1014.01
2018-08-04T10:01:42.343Z,1013.97
2018-08-04T10:02:42.326Z,1014.00
2018-08-04T10:03:42.312Z,1014.02
2018-08-04T10:04:42.295Z,1013.94
2018-08-04T10:05:42.280Z,1013.99
2018-08-04T10:06:42.262Z,1014.03
2018-08-04T10:07:42.250Z,1014.02
2018-08-04T10:08:42.232Z,1014.02
2018-08-04T10:09:42.217Z,1014.05
2018-08-04T10:10:42.198Z,1014.07
2018-08-04T10:11:42.182Z,1014.09
2018-08-04T10:12:42.168Z,1014.05
2018-08-04T10:13:42.151Z,1014.08
2018-08-04T10:14:42.136Z,1014.08
2018-08-04T10:15:42.123Z,1014.08
2018-08-04T10:16:42.112Z,1014.08
2018-08-04T10:17:42.090Z,1014.08
2018-08-04T10:18:42.072Z,1014.09
2018-08-04T10:19:42.055Z,1014.11
2018-08-04T10:20:42.039Z,1014.08
2018-08-04T10:21:42.022Z,1014.10
2018-08-04T10:22:42.006Z,1014.10
2018-08-04T10:23:41.990Z,1014.14
2018-08-04T10:24:41.975Z,1014.16
2018-08-04T10:25:41.960Z,1014.13
2018-08-04T10:26:41.942Z,1014.16
2018-08-04T10:27:41.927Z,1014.13
2018-08-04T10:28:41.911Z,1014.15
2018-08-04T10:29:41.894Z,1014.16
2018-08-04T10:30:41.877Z,1014.16
2018-08-04T10:31:41.864Z,1014.11
2018-08-04T10:32:41.939Z,1014.16
2018-08-04T10:33:41.831Z,1014.13
2018-08-04T10:34:41.814Z,1014.11
2018-08-04T10:35:41.853Z,1014.14
2018-08-04T10:36:41.782Z,1014.13
2018-08-04T10:37:41.765Z,1014.12
2018-08-04T10:38:41.813Z,1014.13
2018-08-04T10:39:41.736Z,1014.12
2018-08-04T10:40:41.716Z,1014.16
2018-08-04T10:41:41.703Z,1014.15
2018-08-04T10:42:41.685Z,1014.16
2018-08-04T10:43:41.668Z,1014.16
2018-08-04T10:44:41.654Z,1014.19
2018-08-04T10:45:41.638Z,1014.18
2018-08-04T10:46:41.621Z,1014.15
2018-08-04T10:47:41.607Z,1014.18
2018-08-04T10:48:41.592Z,1014.18
2018-08-04T10:49:41.572Z,1014.18
2018-08-04T10:50:41.557Z,1014.19
2018-08-04T10:51:41.540Z,1014.18
2018-08-04T10:52:41.525Z,1014.17
2018-08-04T10:53:41.508Z,1014.13
2018-08-04T10:54:41.493Z,1014.14
2018-08-04T10:55:41.475Z,1014.18
2018-08-04T10:56:41.460Z,1014.12
2018-08-04T10:57:41.445Z,1014.12
2018-08-04T10:58:41.429Z,1014.15
2018-08-04T10:59:41.411Z,1014.16
2018-08-04T11:00:41.397Z,1014.16
2018-08-04T11:01:41.381Z,1014.15
2018-08-04T11:02:41.363Z,1014.11
2018-08-04T11:03:41.378Z,1014.15
2018-08-04T11:04:41.333Z,1014.15
2018-08-04T11:05:41.315Z,1014.09
2018-08-04T11:06:41.300Z,1014.11
2018-08-04T11:07:41.285Z,1014.12
2018-08-04T11:08:41.283Z,1014.11
2018-08-04T11:09:41.253Z,1014.12
2018-08-04T11:10:41.235Z,1014.13
2018-08-04T11:11:41.220Z,1014.13
2018-08-04T11:12:41.256Z,1014.16
2018-08-04T11:13:41.189Z,1014.15
2018-08-04T11:14:41.171Z,1014.16
2018-08-04T11:15:41.156Z,1014.09
2018-08-04T11:16:41.141Z,1014.03
2018-08-04T11:17:41.127Z,1014.08
2018-08-04T11:18:41.110Z,1014.04
2018-08-04T11:19:41.091Z,1014.04
2018-08-04T11:20:41.075Z,1014.07
2018-08-04T11:23:14.143Z,1014.04
2018-08-04T11:24:14.143Z,1014.03
2018-08-04T11:25:14.100Z,1014.00
2018-08-04T11:26:14.083Z,1014.01
2018-08-04T11:27:14.069Z,1014.04
2018-08-04T11:28:14.051Z,1014.00
2018-08-04T11:29:14.032Z,1013.97
2018-08-04T11:30:14.022Z,1013.98
2018-08-04T11:31:14.004Z,1014.04
2018-08-04T11:32:13.988Z,1014.02
2018-08-04T11:33:13.971Z,1014.01
2018-08-04T11:34:13.954Z,1014.01
2018-08-04T11:35:13.938Z,1014.01
2018-08-04T11:36:13.922Z,1013.95
2018-08-04T11:37:13.907Z,1013.98
2018-08-04T11:38:13.890Z,1013.96
2018-08-04T11:39:13.875Z,1013.94
2018-08-04T11:40:13.859Z,1013.95
2018-08-04T11:41:13.844Z,1013.90
2018-08-04T11:42:13.826Z,1013.91
2018-08-04T11:43:13.812Z,1013.88
2018-08-04T11:44:13.796Z,1013.93
2018-08-04T11:45:13.778Z,1013.92
2018-08-04T11:46:13.762Z,1013.92
2018-08-04T11:47:13.748Z,1013.87
2018-08-04T11:48:13.730Z,1013.88
2018-08-04T11:49:13.714Z,1013.84
2018-08-04T11:50:13.697Z,1013.85
2018-08-04T11:51:13.683Z,1013.82
2018-08-04T11:52:13.667Z,1013.85
2018-08-04T11:53:13.654Z,1013.81
2018-08-04T11:54:13.633Z,1013.79
2018-08-04T11:55:13.620Z,1013.80
2018-08-04T11:56:13.602Z,1013.83
2018-08-04T11:57:13.586Z,1013.78
2018-08-04T11:58:13.571Z,1013.79
2018-08-04T11:59:13.555Z,1013.81
2018-08-04T12:00:13.539Z,1013.76
2018-08-04T12:01:13.522Z,1013.77
2018-08-04T12:02:13.507Z,1013.78
2018-08-04T12:03:13.501Z,1013.78
2018-08-04T12:04:13.476Z,1013.83
2018-08-04T12:05:13.457Z,1013.85
2018-08-04T12:06:13.443Z,1013.84
2018-08-04T12:07:13.427Z,1013.81
2018-08-04T12:08:13.410Z,1013.82